Time;durP1;ratioP1;P1;durP2;ratioP2;P2;SDS_P1;SDS_P2;PMS_P1;PMS_P2;Temp;Humidity;BMP_temperature;BMP_pressure;BME280_temperature;BME280_humidity;BME280_pressure;Samples;Min_cycle;Max_cycle;Signal;HPM_P1;HPM_P2
2021/01/17 00:02:12;;;;;;;10.60;5.60;;;;;;;-4.28;50.75;94296.13;5135275;27;20653;-76
2021/01/17 00:04:37;;;;;;;14.50;6.23;;;;;;;-4.38;50.51;94309.19;5135032;27;20205;-76
2021/01/17 00:07:03;;;;;;;13.17;5.77;;;;;;;-4.62;51.95;94306.38;5134913;27;20246;-77
2021/01/17 00:09:28;;;;;;;13.70;6.03;;;;;;;-4.55;51.64;94309.50;5133751;27;20201;-77
2021/01/17 00:11:54;;;;;;;9.27;5.93;;;;;;;-4.42;52.23;94294.38;5134652;27;20165;-77
2021/01/17 00:14:19;;;;;;;12.47;6.73;;;;;;;-4.54;51.62;94294.66;5135333;27;20193;-77
2021/01/17 00:16:45;;;;;;;15.17;6.43;;;;;;;-4.62;51.94;94282.16;5134789;27;20533;-78
2021/01/17 00:19:10;;;;;;;11.30;5.70;;;;;;;-4.60;52.56;94291.28;5116693;27;20165;-77
2021/01/17 00:21:42;;;;;;;11.53;6.07;;;;;;;-4.68;52.65;94288.44;5134657;27;20173;-77
2021/01/17 00:24:08;;;;;;;14.10;6.32;;;;;;;-4.41;52.53;94294.09;5134703;27;20249;-78
2021/01/17 00:26:35;;;;;;;13.60;5.67;;;;;;;-4.52;53.01;94297.78;5115946;27;20181;-77
2021/01/17 00:29:01;;;;;;;12.30;5.80;;;;;;;-4.74;53.22;94297.31;5132943;27;20207;-77
2021/01/17 00:31:26;;;;;;;12.87;6.00;;;;;;;-4.64;53.42;94290.25;5136641;27;20177;-78
2021/01/17 00:33:52;;;;;;;13.47;5.83;;;;;;;-4.43;53.37;94301.41;5134366;27;20204;-78
2021/01/17 00:36:17;;;;;;;12.00;6.57;;;;;;;-4.56;52.84;94294.91;5134468;27;20216;-78
2021/01/17 00:38:43;;;;;;;14.27;5.43;;;;;;;-4.36;52.31;94282.88;5134349;27;20547;-78
2021/01/17 00:41:08;;;;;;;8.97;5.60;;;;;;;-4.45;53.01;94305.31;5134603;27;20237;-78
2021/01/17 00:43:34;;;;;;;13.70;6.63;;;;;;;-4.52;53.12;94298.56;5115841;27;20228;-78
2021/01/17 00:46:02;;;;;;;11.53;5.80;;;;;;;-4.45;52.64;94303.50;5135134;27;20180;-77
2021/01/17 00:48:27;;;;;;;13.25;6.45;;;;;;;-4.44;52.72;94301.66;5117223;27;20256;-78
2021/01/17 00:50:53;;;;;;;13.83;5.97;;;;;;;-4.52;52.27;94295.94;5134393;27;20260;-76
2021/01/17 00:53:18;;;;;;;13.73;6.30;;;;;;;-4.45;52.63;94295.66;5133880;27;20613;-77
2021/01/17 00:55:44;;;;;;;10.33;5.90;;;;;;;-4.32;51.29;94283.91;5134155;27;20259;-77
2021/01/17 00:58:09;;;;;;;13.07;6.03;;;;;;;-4.25;51.93;94294.84;5115283;27;20189;-79
2021/01/17 01:00:35;;;;;;;13.73;6.43;;;;;;;-4.46;51.62;94299.31;5133801;27;20169;-76
2021/01/17 01:03:00;;;;;;;11.37;6.13;;;;;;;-4.33;51.11;94290.94;5117170;27;20628;-77
2021/01/17 01:05:26;;;;;;;10.53;5.80;;;;;;;-4.45;51.35;94292.28;5133836;27;20624;-76
2021/01/17 01:07:52;;;;;;;13.07;6.53;;;;;;;-4.58;52.05;94293.63;5133981;27;20716;-77
2021/01/17 01:10:17;;;;;;;10.85;5.38;;;;;;;-4.63;52.28;94294.41;5133774;27;20191;-76
2021/01/17 01:12:43;;;;;;;11.70;6.00;;;;;;;-4.46;51.92;94304.53;5133836;27;20715;-78
2021/01/17 01:15:08;;;;;;;8.93;5.03;;;;;;;-4.43;51.34;94282.38;5133692;27;20219;-79
2021/01/17 01:17:34;;;;;;;9.57;5.07;;;;;;;-4.63;51.83;94293.63;5132830;27;20529;-77
2021/01/17 01:20:00;;;;;;;12.33;5.60;;;;;;;-4.46;51.95;94306.38;5132350;27;20180;-77
2021/01/17 01:22:25;;;;;;;11.33;5.43;;;;;;;-4.31;51.84;94294.06;5132591;27;20168;-77
2021/01/17 01:24:51;;;;;;;8.10;5.13;;;;;;;-4.39;50.97;94286.78;5133672;27;20303;-76
2021/01/17 01:27:16;;;;;;;12.10;6.63;;;;;;;-4.31;51.83;94278.44;5133220;27;20173;-77
2021/01/17 01:29:42;;;;;;;12.73;5.87;;;;;;;-4.09;50.62;94280.69;5133702;27;20183;-78
2021/01/17 01:32:07;;;;;;;8.50;4.83;;;;;;;-4.33;51.46;94277.91;5133203;27;20188;-77
2021/01/17 01:34:33;;;;;;;8.17;4.73;;;;;;;-4.31;51.86;94285.47;5115403;27;20195;-77
2021/01/17 01:36:58;;;;;;;13.93;6.63;;;;;;;-4.58;51.75;94286.59;5133157;27;20217;-77
2021/01/17 01:39:24;;;;;;;9.13;5.40;;;;;;;-4.55;52.86;94277.44;5132543;27;20161;-76
2021/01/17 01:41:49;;;;;;;11.40;5.20;;;;;;;-4.61;51.79;94279.28;5133039;27;20165;-77
2021/01/17 01:44:15;;;;;;;8.55;4.70;;;;;;;-4.66;52.81;94263.66;5132986;27;20228;-77
2021/01/17 01:46:41;;;;;;;11.30;5.87;;;;;;;-4.56;52.79;94271.47;5133181;27;20180;-77
2021/01/17 01:49:08;;;;;;;8.70;5.27;;;;;;;-4.43;52.13;94280.56;5131812;27;20173;-77
2021/01/17 01:51:33;;;;;;;11.02;5.78;;;;;;;-4.46;51.27;94288.13;5133075;27;20203;-77
2021/01/17 01:53:59;;;;;;;11.10;5.00;;;;;;;-4.20;50.99;94286.22;5114731;27;20564;-78
2021/01/17 01:56:25;;;;;;;8.37;5.77;;;;;;;-4.21;52.04;94275.00;5132920;27;20192;-78
2021/01/17 01:58:51;;;;;;;9.03;4.80;;;;;;;-4.39;50.69;94278.97;5132850;27;20169;-77
2021/01/17 02:01:16;;;;;;;10.82;5.40;;;;;;;-4.32;50.26;94276.06;5132863;27;20541;-78
2021/01/17 02:03:46;;;;;;;13.23;5.23;;;;;;;-4.32;50.34;94273.47;5132665;27;20230;-77
2021/01/17 02:06:11;;;;;;;10.40;5.15;;;;;;;-4.47;51.49;94266.50;5133012;27;20165;-77
2021/01/17 02:09:12;;;;;;;12.30;6.10;;;;;;;-4.35;51.30;94274.78;5132564;27;20671;-77
2021/01/17 02:11:58;;;;;;;9.55;5.07;;;;;;;-4.42;50.75;94278.75;5069395;28;20187;-77
2021/01/17 02:14:42;;;;;;;9.50;5.32;;;;;;;-4.38;51.54;94274.53;5069610;28;20185;-77
2021/01/17 02:17:09;;;;;;;11.23;5.55;;;;;;;-4.31;50.67;94277.66;5069368;28;20182;-79
2021/01/17 02:20:04;;;;;;;10.15;5.53;;;;;;;-4.44;51.55;94273.00;5052926;28;20179;-79
2021/01/17 02:23:02;;;;;;;11.73;5.90;;;;;;;-4.48;50.93;94254.53;5068942;28;20187;-77
2021/01/17 02:25:45;;;;;;;11.95;5.45;;;;;;;-4.52;50.88;94262.06;5060440;28;20195;-77
2021/01/17 02:28:12;;;;;;;11.75;5.80;;;;;;;-4.63;52.00;94260.53;5052520;28;20562;-76
2021/01/17 02:30:56;;;;;;;12.70;6.03;;;;;;;-4.46;51.96;94262.06;5069032;28;20611;-76
2021/01/17 02:33:23;;;;;;;12.10;5.82;;;;;;;-4.27;52.11;94270.84;5052587;28;20224;-77
2021/01/17 02:35:50;;;;;;;9.30;5.53;;;;;;;-4.42;51.62;94266.47;5069190;28;20191;-78
2021/01/17 02:38:43;;;;;;;11.18;5.57;;;;;;;-4.69;52.39;94277.25;5069018;28;20214;-77
2021/01/17 02:41:24;;;;;;;8.82;5.20;;;;;;;-4.56;52.21;94276.66;5069231;28;20187;-77
2021/01/17 02:43:49;;;;;;;13.10;5.63;;;;;;;-4.65;52.26;94270.47;5052361;28;20268;-79
2021/01/17 02:46:15;;;;;;;10.40;5.27;;;;;;;-4.58;51.68;94268.34;5052113;28;20688;-78
2021/01/17 02:48:41;;;;;;;9.63;4.90;;;;;;;-4.42;51.34;94273.53;5117748;28;20185;-78
2021/01/17 02:51:06;;;;;;;13.00;5.90;;;;;;;-4.52;51.74;94282.91;5134287;27;20168;-80
2021/01/17 02:53:45;;;;;;;11.77;5.83;;;;;;;-4.60;52.69;94291.28;5136305;27;20713;-76
2021/01/17 02:56:19;;;;;;;10.68;5.43;;;;;;;-4.55;52.52;94282.66;5136302;27;20664;-77
2021/01/17 02:58:47;;;;;;;11.18;6.18;;;;;;;-4.64;51.64;94277.22;5101000;27;20176;-77
2021/01/17 03:01:13;;;;;;;12.77;5.13;;;;;;;-4.54;52.06;94266.78;5135009;27;20184;-78
2021/01/17 03:03:40;;;;;;;9.77;5.50;;;;;;;-4.71;52.90;94284.53;5117899;27;20230;-79
2021/01/17 03:06:07;;;;;;;14.18;6.07;;;;;;;-4.77;53.61;94267.34;5117773;27;20173;-77
2021/01/17 03:08:33;;;;;;;12.23;5.90;;;;;;;-5.08;53.35;94248.41;5136052;27;20221;-78
2021/01/17 03:10:59;;;;;;;12.10;5.88;;;;;;;-4.72;52.94;94264.72;5117710;27;20196;-77
2021/01/17 03:13:24;;;;;;;8.60;5.53;;;;;;;-4.76;52.82;94262.94;5136192;27;20180;-77
2021/01/17 03:15:51;;;;;;;12.60;6.40;;;;;;;-4.59;52.86;94251.16;5134829;27;20161;-77
2021/01/17 03:18:16;;;;;;;10.18;5.72;;;;;;;-4.47;52.06;94258.69;5134634;27;20185;-77
2021/01/17 03:20:42;;;;;;;10.20;5.57;;;;;;;-4.49;52.03;94250.31;5135849;27;20176;-78
2021/01/17 03:23:07;;;;;;;11.10;5.20;;;;;;;-4.52;52.46;94254.25;5135665;27;20184;-77
2021/01/17 03:25:33;;;;;;;10.57;5.67;;;;;;;-4.61;52.40;94257.66;5135715;27;20253;-77
2021/01/17 03:27:58;;;;;;;10.77;6.07;;;;;;;-4.52;51.85;94256.88;5135918;27;20199;-77
2021/01/17 03:30:24;;;;;;;10.37;5.77;;;;;;;-4.81;51.37;94256.69;5135979;27;20637;-78
2021/01/17 03:32:49;;;;;;;10.53;6.13;;;;;;;-4.59;51.79;94250.38;5135594;27;20165;-76
2021/01/17 03:35:15;;;;;;;10.73;5.20;;;;;;;-4.42;51.67;94252.69;5135810;27;20614;-78
2021/01/17 03:37:40;;;;;;;10.63;5.30;;;;;;;-4.52;51.30;94253.47;5127607;27;20223;-77
2021/01/17 03:40:06;;;;;;;9.73;5.10;;;;;;;-4.40;50.55;94261.78;5135734;27;20165;-77
2021/01/17 03:42:32;;;;;;;12.17;5.70;;;;;;;-4.54;51.04;94255.59;5126331;27;20169;-76
2021/01/17 03:44:57;;;;;;;8.73;4.70;;;;;;;-4.88;51.08;94244.97;5135635;27;20219;-77
2021/01/17 03:47:23;;;;;;;11.60;6.20;;;;;;;-4.53;51.41;94247.50;5132870;27;20672;-77
2021/01/17 03:49:48;;;;;;;12.07;5.63;;;;;;;-4.43;50.81;94245.88;5135716;27;20173;-78
2021/01/17 03:52:14;;;;;;;10.50;5.27;;;;;;;-4.67;51.19;94263.94;5135442;27;20242;-77
2021/01/17 03:54:39;;;;;;;12.37;5.93;;;;;;;-4.50;50.96;94256.59;5135141;27;20649;-78
2021/01/17 03:57:05;;;;;;;10.37;5.50;;;;;;;-4.27;50.87;94265.63;5130887;27;20645;-76
2021/01/17 03:59:30;;;;;;;10.77;5.70;;;;;;;-4.45;50.98;94268.84;5135115;27;20165;-78
2021/01/17 04:01:56;;;;;;;9.47;5.87;;;;;;;-4.49;50.84;94262.59;5134548;27;20598;-78
2021/01/17 04:04:21;;;;;;;10.30;5.70;;;;;;;-4.23;50.44;94269.28;5132822;27;20276;-78
2021/01/17 04:06:47;;;;;;;10.63;5.43;;;;;;;-4.57;50.34;94262.09;5133714;27;20227;-78
2021/01/17 04:09:12;;;;;;;9.73;5.00;;;;;;;-4.57;50.77;94256.09;5131352;27;20210;-77
2021/01/17 04:11:38;;;;;;;10.30;5.00;;;;;;;-4.33;50.81;94258.88;5127025;27;20207;-77
2021/01/17 04:14:03;;;;;;;9.73;4.83;;;;;;;-4.53;50.40;94263.13;5135294;27;20180;-77
2021/01/17 04:16:29;;;;;;;9.10;4.53;;;;;;;-4.48;50.31;94249.31;5142384;27;20181;-77
2021/01/17 04:18:54;;;;;;;10.23;4.97;;;;;;;-4.37;50.01;94252.66;5135005;27;20180;-78
2021/01/17 04:21:20;;;;;;;10.00;4.83;;;;;;;-4.26;50.13;94251.56;5134709;27;20161;-77
2021/01/17 04:23:45;;;;;;;7.60;4.00;;;;;;;-4.30;49.12;94256.53;5134707;27;20212;-77
2021/01/17 04:26:11;;;;;;;7.73;4.80;;;;;;;-4.14;49.61;94262.47;5130189;27;20181;-76
2021/01/17 04:28:36;;;;;;;8.20;4.67;;;;;;;-4.17;49.58;94268.19;5126507;27;20165;-77
2021/01/17 04:31:02;;;;;;;8.60;4.33;;;;;;;-4.29;49.72;94249.50;5134570;27;20242;-77
2021/01/17 04:33:27;;;;;;;10.03;4.33;;;;;;;-4.37;50.01;94261.25;5126290;27;20172;-74
2021/01/17 04:35:53;;;;;;;7.90;5.13;;;;;;;-4.27;49.87;94250.00;5128550;27;20178;-75
2021/01/17 04:38:18;;;;;;;7.87;4.20;;;;;;;-4.36;49.26;94256.81;5133069;27;20308;-73
2021/01/17 04:40:44;;;;;;;9.17;4.83;;;;;;;-4.17;48.30;94255.16;5116159;27;20180;-74
2021/01/17 04:43:20;;;;;;;8.80;4.93;;;;;;;-4.22;49.12;94265.63;5134113;27;20626;-74
2021/01/17 04:45:47;;;;;;;9.80;4.30;;;;;;;-4.47;49.44;94271.72;5116133;27;20202;-75
2021/01/17 04:48:12;;;;;;;9.60;4.63;;;;;;;-4.25;48.61;94273.97;5134075;27;20165;-73
2021/01/17 04:50:38;;;;;;;10.07;4.93;;;;;;;-4.09;48.62;94266.88;5116077;27;20165;-76
2021/01/17 04:53:04;;;;;;;8.40;3.73;;;;;;;-4.04;48.45;94265.03;5115740;27;20184;-74
2021/01/17 04:55:30;;;;;;;8.63;4.95;;;;;;;-4.57;49.20;94248.28;5134072;27;20214;-75
2021/01/17 04:58:17;;;;;;;7.43;4.33;;;;;;;-4.30;49.21;94266.97;5133982;27;20173;-73
2021/01/17 05:00:44;;;;;;;11.90;5.68;;;;;;;-4.36;49.29;94265.41;5098702;27;20229;-72
2021/01/17 05:03:26;;;;;;;6.90;4.53;;;;;;;-4.44;49.98;94270.38;5112442;27;20242;-74
2021/01/17 05:05:59;;;;;;;11.75;5.15;;;;;;;-4.31;48.57;94267.22;5133959;27;20161;-76
2021/01/17 05:08:25;;;;;;;7.63;4.32;;;;;;;-4.42;49.08;94268.31;5115567;27;20177;-73
2021/01/17 05:10:58;;;;;;;10.90;4.97;;;;;;;-4.33;49.10;94264.09;5115734;27;20621;-76
2021/01/17 05:13:24;;;;;;;8.05;4.55;;;;;;;-4.17;47.61;94268.19;5116074;27;20180;-74
2021/01/17 05:15:49;;;;;;;8.02;4.85;;;;;;;-4.26;48.05;94262.00;5115509;27;20205;-74
2021/01/17 05:18:15;;;;;;;7.27;4.33;;;;;;;-4.11;48.05;94267.13;5098374;27;20189;-73
2021/01/17 05:20:40;;;;;;;7.80;4.53;;;;;;;-4.04;47.55;94275.47;5098279;27;20654;-74
2021/01/17 05:23:10;;;;;;;9.13;4.97;;;;;;;-4.15;47.08;94275.75;5115054;27;20259;-74
2021/01/17 05:25:35;;;;;;;10.68;4.38;;;;;;;-4.12;47.56;94270.78;5133914;27;20169;-73
2021/01/17 05:28:01;;;;;;;8.93;4.80;;;;;;;-4.13;47.75;94266.63;5133275;27;20177;-75
2021/01/17 05:30:26;;;;;;;5.77;3.43;;;;;;;-4.29;47.12;94272.94;5114617;27;20181;-73
2021/01/17 05:32:53;;;;;;;6.40;3.63;;;;;;;-4.48;47.39;94262.34;5114319;27;20676;-73
2021/01/17 05:35:20;;;;;;;8.30;4.53;;;;;;;-4.37;47.56;94266.47;5114268;27;20185;-74
2021/01/17 05:37:53;;;;;;;8.38;4.65;;;;;;;-4.24;47.73;94257.28;5133088;27;20705;-76
2021/01/17 05:40:19;;;;;;;7.00;3.97;;;;;;;-4.19;47.71;94269.53;5133539;27;20674;-77
2021/01/17 05:42:45;;;;;;;8.40;4.87;;;;;;;-4.01;47.48;94261.09;5133222;27;20173;-74
2021/01/17 05:45:21;;;;;;;10.07;5.03;;;;;;;-4.13;46.60;94274.44;5132288;27;20196;-75
2021/01/17 05:47:59;;;;;;;8.43;4.50;;;;;;;-4.30;46.88;94268.78;5133076;27;20173;-78
2021/01/17 05:50:29;;;;;;;11.73;5.22;;;;;;;-4.26;48.49;94275.03;5133212;27;20717;-77
2021/01/17 05:52:55;;;;;;;10.00;5.05;;;;;;;-4.19;47.71;94277.34;5130985;27;20185;-76
2021/01/17 05:55:31;;;;;;;6.50;4.07;;;;;;;-4.05;47.14;94275.72;5133149;27;20245;-78
2021/01/17 05:58:26;;;;;;;7.00;3.95;;;;;;;-4.00;47.22;94268.63;5132914;27;20183;-77
2021/01/17 06:00:55;;;;;;;8.15;4.60;;;;;;;-4.12;47.98;94262.19;5131273;27;20561;-77
2021/01/17 06:03:28;;;;;;;6.38;4.22;;;;;;;-4.21;47.39;94266.38;5148330;27;20260;-77
2021/01/17 06:06:05;;;;;;;10.77;4.97;;;;;;;-4.23;47.14;94245.81;5148164;27;20230;-77
2021/01/17 06:08:30;;;;;;;8.95;5.20;;;;;;;-4.27;48.42;94273.44;5132536;27;20173;-77
2021/01/17 06:11:08;;;;;;;7.07;4.97;;;;;;;-4.09;48.60;94259.06;5132777;27;20165;-77
2021/01/17 06:13:35;;;;;;;12.68;5.18;;;;;;;-3.93;47.31;94263.13;5148192;27;20165;-77
2021/01/17 06:16:01;;;;;;;9.82;5.25;;;;;;;-3.95;46.73;94261.84;5131700;27;20602;-75
2021/01/17 06:18:26;;;;;;;9.73;5.23;;;;;;;-4.03;47.20;94268.41;5148943;27;20189;-77
2021/01/17 06:20:57;;;;;;;7.93;4.83;;;;;;;-4.38;47.14;94275.31;5131543;27;20664;-77
2021/01/17 06:23:22;;;;;;;8.23;5.28;;;;;;;-4.49;47.82;94268.56;5132578;27;20544;-73
2021/01/17 06:26:00;;;;;;;7.60;4.83;;;;;;;-4.30;47.94;94274.78;5130776;27;20172;-77
2021/01/17 06:28:40;;;;;;;8.10;4.72;;;;;;;-4.05;48.33;94270.50;5132453;27;20165;-76
2021/01/17 06:31:07;;;;;;;9.48;4.95;;;;;;;-3.97;48.42;94269.94;5130994;27;20671;-76
2021/01/17 06:33:32;;;;;;;9.18;4.32;;;;;;;-3.97;48.27;94272.56;5147737;27;20189;-76
2021/01/17 06:36:14;;;;;;;8.40;5.23;;;;;;;-4.19;48.44;94266.91;5148473;27;20241;-76
2021/01/17 06:38:40;;;;;;;17.83;6.57;;;;;;;-4.08;48.30;94269.22;5132256;27;20701;-76
2021/01/17 06:41:06;;;;;;;13.38;6.25;;;;;;;-4.14;48.92;94275.50;5131395;28;20185;-73
2021/01/17 06:43:31;;;;;;;11.70;6.53;;;;;;;-4.15;48.77;94283.56;5131012;28;20242;-77
2021/01/17 06:45:57;;;;;;;14.30;7.97;;;;;;;-4.32;49.28;94271.66;5132471;27;20165;-73
2021/01/17 06:48:24;;;;;;;13.60;7.63;;;;;;;-4.45;49.25;94284.47;5131106;28;20165;-75
2021/01/17 06:50:49;;;;;;;19.75;7.88;;;;;;;-4.36;49.75;94291.47;5131937;28;20605;-76
2021/01/17 06:53:25;;;;;;;20.77;8.73;;;;;;;-4.31;49.60;94285.47;5130943;28;20173;-76
2021/01/17 06:56:14;;;;;;;22.20;9.10;;;;;;;-4.14;49.62;94292.97;5131243;28;20194;-74
2021/01/17 06:58:40;;;;;;;15.60;7.15;;;;;;;-4.12;49.54;94299.47;5132068;27;20175;-75
2021/01/17 07:01:06;;;;;;;13.55;7.75;;;;;;;-4.04;49.74;94301.53;5148299;27;20188;-74
2021/01/17 07:03:37;;;;;;;21.80;8.47;;;;;;;-3.96;49.64;94308.00;5131812;28;20219;-75
2021/01/17 07:06:29;;;;;;;16.45;7.93;;;;;;;-3.90;48.20;94301.72;5131198;28;20169;-79
2021/01/17 07:09:00;;;;;;;15.05;7.15;;;;;;;-4.06;48.89;94293.19;5147843;27;20169;-78
2021/01/17 07:11:55;;;;;;;11.70;6.80;;;;;;;-4.19;49.51;94298.22;5130933;28;20559;-78
2021/01/17 07:14:26;;;;;;;20.58;8.02;;;;;;;-4.22;49.51;94280.47;5072340;28;20716;-79
2021/01/17 07:16:52;;;;;;;13.00;7.90;;;;;;;-4.27;50.22;94299.50;5072185;28;20174;-78
2021/01/17 07:19:19;;;;;;;17.00;8.07;;;;;;;-4.13;50.35;94297.13;5089084;28;20186;-75
2021/01/17 07:21:45;;;;;;;15.77;8.63;;;;;;;-4.15;51.15;94299.22;5088841;28;20227;-74
2021/01/17 07:24:10;;;;;;;20.37;9.27;;;;;;;-3.93;51.03;94301.47;5055478;28;20254;-78
2021/01/17 07:27:05;;;;;;;17.17;8.87;;;;;;;-3.75;50.48;94298.25;5088858;28;20174;-75
2021/01/17 07:29:31;;;;;;;17.20;9.13;;;;;;;-3.72;50.12;94276.84;5012389;28;20201;-76
2021/01/17 07:31:56;;;;;;;19.50;8.77;;;;;;;-3.51;48.44;94291.31;5011921;28;20631;-73
2021/01/17 07:34:22;;;;;;;16.47;8.87;;;;;;;-3.41;48.51;94285.28;5012423;28;20243;-75
2021/01/17 07:36:48;;;;;;;24.20;8.85;;;;;;;-3.54;48.41;94297.06;5011663;28;20271;-77
2021/01/17 07:39:18;;;;;;;19.92;10.13;;;;;;;-3.77;49.53;94288.06;5031968;28;20176;-75
2021/01/17 07:41:46;;;;;;;25.00;10.05;;;;;;;-3.83;48.79;94286.56;5032251;28;20180;-74
2021/01/17 07:44:15;;;;;;;25.13;10.27;;;;;;;-3.87;49.85;94289.97;5032125;28;20216;-73
2021/01/17 07:46:40;;;;;;;21.10;8.73;;;;;;;-3.76;49.78;94300.09;5015881;28;20184;-74
2021/01/17 07:49:06;;;;;;;16.67;7.93;;;;;;;-3.58;48.75;94287.47;5015829;28;20177;-74
2021/01/17 07:51:31;;;;;;;14.80;7.30;;;;;;;-3.75;49.66;94295.66;5049015;28;20545;-76
2021/01/17 07:54:00;;;;;;;10.53;6.10;;;;;;;-3.61;48.09;94301.81;5071794;28;20215;-73
2021/01/17 07:56:28;;;;;;;15.23;5.85;;;;;;;-3.65;48.48;94302.63;5072204;28;20657;-77
2021/01/17 07:59:04;;;;;;;8.23;5.50;;;;;;;-3.55;49.04;94303.34;5054894;28;20179;-74
2021/01/17 08:01:37;;;;;;;14.18;6.50;;;;;;;-3.38;47.34;94310.03;5072000;28;20253;-74
2021/01/17 08:04:16;;;;;;;10.45;5.53;;;;;;;-3.47;47.61;94302.00;5071887;28;20218;-73
2021/01/17 08:06:42;;;;;;;12.13;5.80;;;;;;;-3.32;48.01;94304.50;5109707;27;20273;-73
2021/01/17 08:09:11;;;;;;;12.43;5.73;;;;;;;-3.36;47.32;94310.56;5135258;27;20255;-72
2021/01/17 08:11:56;;;;;;;8.10;4.80;;;;;;;-3.39;46.98;94306.66;5151220;27;20173;-73
2021/01/17 08:14:34;;;;;;;12.57;5.15;;;;;;;-3.29;46.84;94309.19;5150626;27;20173;-74
2021/01/17 08:17:10;;;;;;;9.63;4.90;;;;;;;-3.33;46.77;94304.78;5117532;27;20181;-73
2021/01/17 08:19:58;;;;;;;7.57;4.28;;;;;;;-3.39;46.69;94319.69;5114547;27;20186;-72
2021/01/17 08:22:23;;;;;;;9.05;4.47;;;;;;;-3.37;46.43;94312.38;5113627;28;20304;-72
2021/01/17 08:24:52;;;;;;;6.77;4.30;;;;;;;-3.34;46.06;94309.22;5130179;27;20276;-76
2021/01/17 08:27:36;;;;;;;9.25;5.25;;;;;;;-3.03;45.35;94306.38;5134072;27;20184;-72
2021/01/17 08:30:07;;;;;;;9.13;5.20;;;;;;;-2.83;45.77;94310.66;5134534;27;20176;-76
2021/01/17 08:32:43;;;;;;;5.03;3.58;;;;;;;-2.69;44.70;94316.81;5134374;27;20162;-73
2021/01/17 08:35:15;;;;;;;10.48;4.95;;;;;;;-2.62;43.98;94313.88;5148860;27;20184;-77
2021/01/17 08:37:41;;;;;;;7.05;4.07;;;;;;;-2.62;44.79;94309.44;5133596;27;20725;-74
2021/01/17 08:40:07;;;;;;;6.85;4.50;;;;;;;-2.53;43.81;94310.38;5121994;27;20638;-75
2021/01/17 08:42:37;;;;;;;9.18;4.45;;;;;;;-2.67;43.89;94319.94;5134273;27;20206;-78
2021/01/17 08:45:26;;;;;;;6.57;3.58;;;;;;;-2.64;43.87;94315.97;5134131;27;20578;-73
2021/01/17 08:47:52;;;;;;;8.50;5.18;;;;;;;-2.74;44.08;94319.47;5128542;27;20188;-79
2021/01/17 08:50:37;;;;;;;6.13;4.10;;;;;;;-2.37;43.64;94325.91;5134026;27;20165;-77
2021/01/17 08:53:09;;;;;;;7.90;4.55;;;;;;;-2.49;42.77;94332.31;5149313;27;20185;-76
2021/01/17 08:55:38;;;;;;;7.65;4.97;;;;;;;-2.71;43.70;94318.91;5133683;27;20157;-76
2021/01/17 08:58:03;;;;;;;10.20;5.28;;;;;;;-2.70;43.72;94328.31;5149699;27;20209;-76
2021/01/17 09:00:48;;;;;;;5.90;4.33;;;;;;;-2.86;43.85;94335.53;5133602;27;20165;-76
2021/01/17 09:03:36;;;;;;;9.45;4.60;;;;;;;-2.79;44.10;94335.22;5133752;27;20165;-75
2021/01/17 09:06:08;;;;;;;11.55;4.88;;;;;;;-2.53;44.16;94328.69;5133875;27;20670;-76
2021/01/17 09:08:33;;;;;;;9.20;4.75;;;;;;;-2.33;43.15;94338.16;5149158;27;20161;-73
2021/01/17 09:10:59;;;;;;;8.97;4.97;;;;;;;-2.25;42.51;94339.38;5134014;27;20184;-75
2021/01/17 09:13:26;;;;;;;11.17;4.77;;;;;;;-2.41;43.06;94331.72;5134065;27;20157;-73
2021/01/17 09:15:51;;;;;;;9.02;4.90;;;;;;;-2.47;44.09;94343.28;5133236;27;20169;-71
2021/01/17 09:18:22;;;;;;;11.30;5.10;;;;;;;-2.36;43.55;94336.09;5133531;27;20329;-74
2021/01/17 09:20:48;;;;;;;7.38;4.60;;;;;;;-2.36;42.90;94338.72;5133049;27;20706;-72
2021/01/17 09:23:13;;;;;;;8.60;4.70;;;;;;;-2.51;43.87;94325.81;5132008;27;20177;-72
2021/01/17 09:25:39;;;;;;;9.07;5.00;;;;;;;-2.41;43.68;94329.09;5131893;27;20216;-74
2021/01/17 09:28:04;;;;;;;9.17;4.47;;;;;;;-2.61;43.72;94325.91;5133174;27;20167;-74
2021/01/17 09:30:30;;;;;;;8.33;4.53;;;;;;;-2.76;44.19;94318.97;5131460;27;20271;-73
2021/01/17 09:32:56;;;;;;;7.53;5.10;;;;;;;-2.61;44.00;94318.84;5133204;27;20249;-73
2021/01/17 09:35:27;;;;;;;6.87;4.30;;;;;;;-2.35;43.90;94315.97;5131777;27;20196;-70
2021/01/17 09:38:00;;;;;;;8.93;4.50;;;;;;;-2.29;43.51;94314.88;5132994;27;20225;-70
2021/01/17 09:40:47;;;;;;;6.13;4.35;;;;;;;-2.41;43.15;94312.63;5133031;27;20230;-71
2021/01/17 09:43:16;;;;;;;12.20;5.65;;;;;;;-2.26;44.07;94291.53;5133696;27;20169;-70
2021/01/17 09:45:41;;;;;;;7.63;4.88;;;;;;;-2.29;43.26;94288.72;5133098;27;21058;-72
2021/01/17 09:48:07;;;;;;;7.60;4.97;;;;;;;-2.13;43.48;94290.88;5133076;27;20178;-72
2021/01/17 09:50:33;;;;;;;9.73;5.40;;;;;;;-1.92;42.66;94286.16;5133192;27;20202;-72
2021/01/17 09:53:06;;;;;;;6.55;4.57;;;;;;;-1.70;42.78;94277.00;5148439;27;20245;-73
2021/01/17 09:55:37;;;;;;;7.60;5.07;;;;;;;-1.81;42.72;94278.97;5132848;27;20173;-73
2021/01/17 09:58:05;;;;;;;11.90;5.97;;;;;;;-1.45;41.29;94281.13;5131482;27;20204;-75
2021/01/17 10:00:30;;;;;;;9.35;5.70;;;;;;;-1.59;41.53;94275.78;5129429;27;20196;-71
2021/01/17 10:02:56;;;;;;;10.53;6.20;;;;;;;-1.31;41.65;94275.94;5132915;27;20246;-71
2021/01/17 10:05:30;;;;;;;8.97;5.43;;;;;;;-1.10;41.15;94274.56;5131460;27;20215;-71
2021/01/17 10:08:03;;;;;;;9.73;5.57;;;;;;;-1.09;40.79;94269.03;5132717;27;20179;-70
2021/01/17 10:10:28;;;;;;;9.93;6.13;;;;;;;-1.08;40.36;94262.72;5131081;27;20196;-71
2021/01/17 10:12:54;;;;;;;11.40;6.73;;;;;;;-0.83;39.71;94258.16;5132674;27;20212;-73
2021/01/17 10:15:20;;;;;;;14.30;7.03;;;;;;;-0.63;40.06;94264.88;5132439;27;20173;-71
2021/01/17 10:17:46;;;;;;;9.13;5.30;;;;;;;-0.74;39.78;94258.25;5132163;27;20204;-71
2021/01/17 10:20:12;;;;;;;9.15;5.70;;;;;;;-0.77;39.73;94259.59;5131322;27;20177;-71
2021/01/17 10:22:38;;;;;;;8.18;5.32;;;;;;;-0.78;38.54;94268.53;5132099;27;20177;-74
2021/01/17 10:25:04;;;;;;;10.07;6.13;;;;;;;-1.25;39.22;94257.22;5148198;27;20207;-71
2021/01/17 10:27:29;;;;;;;9.83;6.00;;;;;;;-1.46;40.39;94263.81;5132432;27;20621;-71
2021/01/17 10:29:55;;;;;;;12.60;5.50;;;;;;;-1.88;41.47;94255.00;5147994;27;20212;-71
2021/01/17 10:32:20;;;;;;;12.40;6.73;;;;;;;-2.07;42.03;94256.81;5130763;27;20177;-72
2021/01/17 10:34:47;;;;;;;13.73;6.83;;;;;;;-1.80;41.81;94253.56;5131083;27;20181;-72
2021/01/17 10:37:13;;;;;;;10.45;5.75;;;;;;;-1.94;40.71;94248.28;5130783;27;20299;-71
2021/01/17 10:39:40;;;;;;;11.15;6.20;;;;;;;-2.19;41.95;94244.13;5130931;27;20257;-71
2021/01/17 10:42:12;;;;;;;13.75;6.25;;;;;;;-2.52;42.41;94251.06;5131936;27;20668;-72
2021/01/17 10:44:49;;;;;;;10.25;5.32;;;;;;;-2.54;43.90;94253.94;5147478;27;20292;-72
2021/01/17 10:47:36;;;;;;;8.80;5.93;;;;;;;-2.25;42.80;94250.47;5130971;28;20248;-71
2021/01/17 10:50:06;;;;;;;10.38;5.80;;;;;;;-2.16;43.49;94246.97;5131126;28;20629;-72
2021/01/17 10:52:31;;;;;;;9.75;5.82;;;;;;;-2.13;42.58;94246.41;5131637;27;20161;-73
2021/01/17 10:54:57;;;;;;;12.03;6.87;;;;;;;-2.05;42.09;94234.53;5130941;28;20673;-74
2021/01/17 10:57:22;;;;;;;10.73;5.70;;;;;;;-2.25;42.47;94230.31;5147796;27;20196;-72
2021/01/17 10:59:49;;;;;;;8.27;5.40;;;;;;;-2.15;42.74;94227.59;5130428;28;20257;-72
2021/01/17 11:02:22;;;;;;;10.95;6.13;;;;;;;-2.38;41.83;94219.78;5130170;28;20183;-75
2021/01/17 11:04:56;;;;;;;9.35;6.13;;;;;;;-2.15;42.09;94221.59;5147178;27;20208;-72
2021/01/17 11:07:29;;;;;;;9.93;5.78;;;;;;;-2.08;42.01;94234.31;5131554;27;20613;-72
2021/01/17 11:09:57;;;;;;;10.20;5.93;;;;;;;-1.71;42.33;94229.09;5132023;27;20259;-73
2021/01/17 11:12:38;;;;;;;10.68;6.00;;;;;;;-1.78;41.03;94235.75;5133927;27;20729;-72
2021/01/17 11:15:14;;;;;;;9.98;5.75;;;;;;;-1.94;40.84;94215.03;5136071;27;20177;-71
2021/01/17 11:17:46;;;;;;;11.15;6.38;;;;;;;-2.00;41.18;94226.63;5150631;27;20632;-71
2021/01/17 11:20:12;;;;;;;9.48;5.88;;;;;;;-1.80;40.59;94222.94;5150944;27;20173;-72
2021/01/17 11:22:40;;;;;;;12.80;5.25;;;;;;;-1.66;40.92;94231.66;5135585;27;20196;-72
2021/01/17 11:25:16;;;;;;;14.70;5.85;;;;;;;-1.58;40.26;94226.84;5135714;27;20193;-71
2021/01/17 11:27:51;;;;;;;;;;;;;;;;;;;;;
2021/01/17 11:30:17;;;;;;;12.25;6.40;;;;;;;-1.52;41.20;94225.69;5135214;27;20178;-72
2021/01/17 11:32:49;;;;;;;8.37;5.57;;;;;;;-1.54;41.48;94227.81;5134289;27;20173;-74
2021/01/17 11:35:26;;;;;;;8.98;5.65;;;;;;;-1.67;40.92;94222.25;5134414;27;20649;-73
2021/01/17 11:40:38;;;;;;;10.15;5.80;;;;;;;-1.51;41.10;94211.56;5135110;27;20184;-71
2021/01/17 11:43:18;;;;;;;10.63;5.87;;;;;;;-1.66;40.66;94210.72;5135232;27;20181;-72